Time;durP1;ratioP1;P1;durP2;ratioP2;P2;SDS_P1;SDS_P2;PMS_P1;PMS_P2;Temp;Humidity;BMP_temperature;BMP_pressure;BME280_temperature;BME280_humidity;BME280_pressure;Samples;Min_cycle;Max_cycle;Signal;HPM_P1;HPM_P2
2022/06/17 00:01:09;;;;;;;3.60;1.90;;;;;;;20.54;60.99;99948.13;4364516;32;33504;-84
2022/06/17 00:03:42;;;;;;;5.62;2.33;;;;;;;20.50;61.04;99946.13;4351466;32;32207;-84
2022/06/17 00:06:12;;;;;;;5.50;2.25;;;;;;;20.33;62.12;99941.53;4363880;32;33022;-84
2022/06/17 00:08:45;;;;;;;4.87;2.20;;;;;;;20.44;62.26;99942.47;4364897;32;34532;-84
2022/06/17 00:11:20;;;;;;;4.70;2.10;;;;;;;20.53;62.24;99943.66;4352416;32;31962;-84
2022/06/17 00:13:50;;;;;;;4.17;1.70;;;;;;;20.42;62.69;99955.00;4364392;32;34086;-84
2022/06/17 00:16:25;;;;;;;5.75;2.03;;;;;;;20.39;62.87;99953.59;4364540;32;35097;-84
2022/06/17 00:18:56;;;;;;;3.87;2.00;;;;;;;20.37;62.99;99952.97;4364561;32;33624;-84
2022/06/17 00:21:29;;;;;;;4.80;2.20;;;;;;;20.37;62.94;99942.66;4352254;32;32213;-85
2022/06/17 00:23:59;;;;;;;5.47;2.20;;;;;;;20.43;62.72;99953.88;4364859;32;34549;-85
2022/06/17 00:26:32;;;;;;;6.55;1.83;;;;;;;20.41;62.79;99943.00;4364257;32;34631;-85
2022/06/17 00:29:05;;;;;;;4.97;2.20;;;;;;;20.39;62.71;99954.41;4352589;32;33932;-85
2022/06/17 00:31:32;;;;;;;4.05;1.98;;;;;;;20.35;63.00;99961.59;4364641;32;33515;-84
2022/06/17 00:34:03;;;;;;;4.97;2.00;;;;;;;20.25;63.21;99955.09;4352111;32;33368;-85
2022/06/17 00:36:33;;;;;;;4.53;1.70;;;;;;;20.33;63.08;99960.19;4364398;32;34437;-85
2022/06/17 00:39:05;;;;;;;7.82;2.35;;;;;;;20.27;63.26;99964.03;4363706;32;32489;-85
2022/06/17 00:41:37;;;;;;;4.05;2.05;;;;;;;20.41;62.82;99975.63;4352279;32;33112;-84
2022/06/17 00:44:37;;;;;;;4.87;2.45;;;;;;;20.22;63.33;99959.25;4364144;32;33545;-84
2022/06/17 00:47:30;;;;;;;6.82;2.33;;;;;;;20.32;62.97;99964.09;4352005;32;33128;-84
2022/06/17 00:50:05;;;;;;;3.85;1.90;;;;;;;20.36;62.63;99949.34;4351814;32;32452;-84
2022/06/17 00:52:41;;;;;;;5.03;2.25;;;;;;;20.34;62.59;99932.03;4364191;32;32675;-83
2022/06/17 00:55:30;;;;;;;7.85;2.22;;;;;;;20.36;61.83;99937.34;4364811;32;33707;-84
2022/06/17 00:58:01;;;;;;;3.90;1.80;;;;;;;20.12;61.85;99939.69;4363322;32;34465;-84
2022/06/17 01:00:34;;;;;;;4.80;2.35;;;;;;;20.23;61.36;99937.81;4351343;32;32650;-85
2022/06/17 01:03:07;;;;;;;3.80;1.65;;;;;;;20.25;60.90;99943.97;4364664;32;33042;-84
2022/06/17 01:05:42;;;;;;;4.22;1.80;;;;;;;20.06;61.44;99946.31;4366021;32;33790;-84
2022/06/17 01:09:57;;;;;;;5.32;2.03;;;;;;;20.07;61.27;99939.66;4353573;32;33995;-83
2022/06/17 01:11:18;;;;;;;3.70;1.80;;;;;;;20.01;61.83;99940.72;4368804;32;34491;-85
2022/06/17 01:13:50;;;;;;;4.25;2.08;;;;;;;20.22;60.71;99948.13;4353392;32;32945;-84
2022/06/17 01:16:23;;;;;;;3.37;1.80;;;;;;;20.11;61.16;99943.59;4341442;32;33245;-85
2022/06/17 01:18:54;;;;;;;4.10;2.08;;;;;;;19.86;62.31;99952.53;4366108;32;35093;-84
2022/06/17 01:21:34;;;;;;;4.10;2.20;;;;;;;20.01;61.42;99943.50;4341378;32;32634;-84
2022/06/17 01:24:08;;;;;;;4.50;1.80;;;;;;;19.98;61.52;99953.22;4365849;32;32897;-84
2022/06/17 01:26:42;;;;;;;4.62;2.40;;;;;;;19.98;61.37;99949.59;4365448;32;32193;-84
2022/06/17 01:29:18;;;;;;;5.05;2.42;;;;;;;20.01;60.99;99954.63;4353621;32;33027;-85
2022/06/17 01:31:51;;;;;;;5.05;2.62;;;;;;;19.68;62.18;99962.09;4353292;32;33203;-84
2022/06/17 01:34:24;;;;;;;5.57;2.40;;;;;;;19.60;62.66;99961.72;4365511;32;33607;-84
2022/06/17 01:36:53;;;;;;;6.37;2.50;;;;;;;19.66;62.39;99969.03;4352887;32;32292;-84
2022/06/17 01:39:24;;;;;;;6.75;2.70;;;;;;;19.77;61.96;99976.41;4353081;32;33696;-84
2022/06/17 01:41:54;;;;;;;7.37;3.15;;;;;;;19.49;63.43;99974.69;4365923;32;34686;-84
2022/06/17 01:44:33;;;;;;;5.47;2.72;;;;;;;19.51;62.91;99971.59;4353418;32;33451;-84
2022/06/17 01:47:12;;;;;;;4.90;2.60;;;;;;;19.73;62.26;99972.47;4353622;32;33673;-85
2022/06/17 01:49:59;;;;;;;5.32;2.62;;;;;;;19.70;62.52;99976.59;4353731;32;33525;-84
2022/06/17 01:52:35;;;;;;;7.12;3.00;;;;;;;19.60;62.80;99978.44;4353281;32;33338;-83
2022/06/17 01:55:27;;;;;;;6.12;2.92;;;;;;;19.40;63.55;99987.38;4366309;32;33666;-85
2022/06/17 01:58:13;;;;;;;5.32;2.80;;;;;;;19.34;63.63;99986.47;4365697;32;34418;-85
2022/06/17 02:00:42;;;;;;;6.15;2.87;;;;;;;19.29;63.99;99985.56;4365711;32;34491;-85
2022/06/17 02:03:16;;;;;;;5.30;2.87;;;;;;;19.41;63.46;99989.06;4353087;32;33844;-85
2022/06/17 02:05:48;;;;;;;5.72;3.10;;;;;;;19.40;63.36;99984.59;4365637;32;33349;-83
2022/06/17 02:08:23;;;;;;;6.57;3.08;;;;;;;19.28;63.88;99981.09;4365530;32;33737;-84
2022/06/17 02:10:56;;;;;;;7.62;3.28;;;;;;;19.34;63.75;99991.19;4365073;32;32892;-84
2022/06/17 02:13:24;;;;;;;6.50;3.30;;;;;;;19.15;64.41;99985.09;4365033;32;34745;-85
2022/06/17 02:16:02;;;;;;;5.62;2.87;;;;;;;19.14;64.48;99986.19;4365398;32;34528;-84
2022/06/17 02:18:33;;;;;;;7.82;3.10;;;;;;;19.02;64.78;99991.88;4366056;32;33708;-85
2022/06/17 02:21:04;;;;;;;7.50;3.12;;;;;;;19.24;64.02;99988.28;4365157;32;32983;-84
2022/06/17 02:23:36;;;;;;;6.10;2.62;;;;;;;19.22;64.04;99987.69;4352808;32;33869;-84
2022/06/17 02:26:10;;;;;;;5.37;2.80;;;;;;;19.26;63.74;99983.31;4364915;32;32809;-85
2022/06/17 02:28:38;;;;;;;7.15;2.70;;;;;;;19.25;63.66;99981.62;4353055;32;32276;-85
2022/06/17 02:31:12;;;;;;;6.87;3.28;;;;;;;19.19;63.67;99980.72;4353170;32;33119;-85
2022/06/17 02:33:48;;;;;;;6.40;2.92;;;;;;;18.99;64.60;99983.22;4365063;32;34138;-84
2022/06/17 02:36:24;;;;;;;9.35;3.80;;;;;;;18.97;64.77;99988.19;4365562;32;34229;-84
2022/06/17 02:38:55;;;;;;;8.35;3.60;;;;;;;19.01;64.45;99989.34;4365120;32;33836;-85
2022/06/17 02:41:31;;;;;;;7.12;3.45;;;;;;;18.80;65.50;99987.41;4364829;32;33144;-84
2022/06/17 02:44:33;;;;;;;8.88;3.87;;;;;;;18.85;65.10;99984.69;4352983;32;34007;-84
2022/06/17 02:47:02;;;;;;;11.43;4.20;;;;;;;18.82;65.46;99991.63;4353038;32;33433;-85
2022/06/17 02:49:34;;;;;;;8.10;3.90;;;;;;;18.78;65.83;99989.59;4352584;32;32589;-84
2022/06/17 02:52:14;;;;;;;7.10;3.72;;;;;;;18.83;65.83;99995.25;4364593;32;35204;-84
2022/06/17 02:54:55;;;;;;;8.55;3.97;;;;;;;18.64;66.80;99997.44;4364430;32;33440;-84
2022/06/17 02:57:27;;;;;;;9.40;4.03;;;;;;;18.74;66.45;99995.66;4352364;32;34167;-84
2022/06/17 03:00:10;;;;;;;7.68;4.00;;;;;;;19.03;65.24;99998.28;4352728;32;33749;-84
2022/06/17 03:02:43;;;;;;;7.60;3.80;;;;;;;18.82;66.09;99996.34;4352885;32;34587;-85
2022/06/17 03:05:22;;;;;;;7.28;3.97;;;;;;;18.70;66.55;99993.66;4364489;32;32721;-84
2022/06/17 03:07:55;;;;;;;7.53;3.78;;;;;;;18.42;67.55;99991.78;4353027;32;33396;-84
2022/06/17 03:10:37;;;;;;;9.35;3.85;;;;;;;18.60;66.83;99988.78;4365182;32;33780;-84
2022/06/17 03:13:17;;;;;;;6.37;3.90;;;;;;;18.73;66.24;99974.53;4364901;32;34249;-84
2022/06/17 03:15:52;;;;;;;7.07;4.00;;;;;;;18.71;66.22;99979.50;4353202;32;34772;-84
2022/06/17 03:18:24;;;;;;;7.50;4.28;;;;;;;18.93;65.54;99987.00;4352949;32;33628;-84
2022/06/17 03:20:56;;;;;;;8.70;3.70;;;;;;;18.31;68.14;99985.22;4364721;32;33247;-84
2022/06/17 03:23:30;;;;;;;8.00;4.03;;;;;;;18.41;67.97;99987.31;4364831;32;34757;-85
2022/06/17 03:26:12;;;;;;;7.45;3.92;;;;;;;18.51;67.55;99987.47;4364411;32;34740;-83
2022/06/17 03:28:52;;;;;;;8.35;4.18;;;;;;;18.54;67.73;99991.69;4365017;32;34365;-84
2022/06/17 03:31:25;;;;;;;7.00;4.22;;;;;;;18.79;66.82;99994.06;4365269;32;34433;-84
2022/06/17 03:34:34;;;;;;;8.48;4.07;;;;;;;18.75;67.00;99996.50;4352667;32;32886;-84
2022/06/17 03:37:24;;;;;;;7.12;4.10;;;;;;;18.61;67.29;99996.03;4345162;32;33904;-85
2022/06/17 03:40:43;;;;;;;6.32;3.75;;;;;;;18.69;67.30;99995.59;4352496;32;31971;-83
2022/06/17 03:43:17;;;;;;;9.55;3.87;;;;;;;18.92;66.10;99999.25;4363167;32;33965;-79
2022/06/17 03:45:49;;;;;;;8.30;3.83;;;;;;;19.00;66.01;100001.59;4365160;32;35278;-83
2022/06/17 03:48:32;;;;;;;7.45;3.67;;;;;;;18.96;66.17;100009.59;4364924;32;34817;-82
2022/06/17 03:51:05;;;;;;;6.47;3.67;;;;;;;18.96;66.16;100009.59;4365028;32;33850;-84
2022/06/17 03:53:36;;;;;;;6.87;3.83;;;;;;;19.14;65.63;100019.59;4364746;32;34502;-82
2022/06/17 03:56:15;;;;;;;8.18;3.90;;;;;;;19.09;65.81;100013.94;4352312;32;32915;-84
2022/06/17 03:58:46;;;;;;;8.18;3.83;;;;;;;19.08;65.99;100027.03;4340094;32;33727;-84
2022/06/17 04:01:15;;;;;;;6.35;3.83;;;;;;;19.21;65.60;100023.03;4364542;32;33496;-84
2022/06/17 04:03:59;;;;;;;9.38;3.95;;;;;;;19.28;65.35;100023.69;4340495;32;32252;-84
2022/06/17 04:06:38;;;;;;;7.55;3.92;;;;;;;19.16;66.06;100028.53;4364897;32;34403;-84
2022/06/17 04:09:14;;;;;;;7.18;4.43;;;;;;;19.33;65.53;100025.69;4364831;32;33953;-84
2022/06/17 04:11:50;;;;;;;7.95;4.07;;;;;;;19.48;65.04;100033.41;4352224;32;32119;-83
2022/06/17 04:14:46;;;;;;;7.43;4.22;;;;;;;19.36;65.28;100025.19;4364635;32;33799;-83
2022/06/17 04:17:20;;;;;;;13.65;4.80;;;;;;;19.36;65.48;100034.38;4352011;32;33680;-85
2022/06/17 04:20:15;;;;;;;6.30;4.35;;;;;;;19.32;66.03;100038.78;4352055;32;33543;-84
2022/06/17 04:22:45;;;;;;;6.72;3.97;;;;;;;19.51;65.78;100046.78;4364509;32;33409;-83
2022/06/17 04:25:19;;;;;;;9.80;4.45;;;;;;;19.44;65.67;100051.72;4352178;32;33257;-83
2022/06/17 04:27:56;;;;;;;9.20;4.32;;;;;;;19.52;65.65;100045.72;4351775;32;32945;-80
2022/06/17 04:30:28;;;;;;;8.48;4.80;;;;;;;19.57;65.77;100045.78;4364237;32;33808;-85
2022/06/17 04:33:02;;;;;;;9.20;4.75;;;;;;;19.36;66.54;100053.00;4364169;32;33784;-87
2022/06/17 04:35:30;;;;;;;7.22;4.20;;;;;;;19.54;66.50;100038.78;4364412;32;34307;-86
2022/06/17 04:38:00;;;;;;;7.43;4.05;;;;;;;19.65;65.40;100039.75;4362749;32;33684;-85
2022/06/17 04:40:42;;;;;;;8.68;3.90;;;;;;;19.43;66.17;100042.53;4352079;32;32736;-86
2022/06/17 04:43:27;;;;;;;6.80;3.30;;;;;;;19.70;64.79;100037.88;4352426;32;33937;-86
2022/06/17 04:46:16;;;;;;;6.40;3.28;;;;;;;18.96;67.65;100042.97;4351835;32;31857;-86
2022/06/17 04:48:57;;;;;;;6.28;3.35;;;;;;;19.54;65.58;100037.94;4363780;32;34702;-86
2022/06/17 04:51:27;;;;;;;5.53;2.93;;;;;;;19.50;65.90;100042.34;4364450;32;34764;-91
2022/06/17 04:54:07;;;;;;;5.45;2.92;;;;;;;19.78;64.73;100044.94;4365186;32;34315;-87
2022/06/17 04:56:40;;;;;;;7.80;3.40;;;;;;;19.80;64.52;100042.72;4352269;32;33856;-87
2022/06/17 04:59:41;;;;;;;5.12;3.03;;;;;;;19.97;64.33;100035.12;4351918;32;34614;-87
2022/06/17 05:02:21;;;;;;;5.82;2.90;;;;;;;20.23;63.38;100032.56;4351424;32;32381;-86
2022/06/17 05:04:57;;;;;;;6.30;2.90;;;;;;;20.46;62.40;100034.22;4351551;32;32969;-87
2022/06/17 05:07:25;;;;;;;;;;;;;;;20.27;62.96;100036.50;4364451;32;33663;-87
2022/06/17 05:10:28;;;;;;;4.85;2.65;;;;;;;20.43;62.34;100034.75;4353709;32;32953;-86
2022/06/17 05:13:16;;;;;;;7.20;2.60;;;;;;;20.41;62.93;100043.38;4364129;32;33957;-86
2022/06/17 05:15:44;;;;;;;6.45;2.42;;;;;;;19.89;64.57;100048.66;4369044;32;34120;-86
2022/06/17 05:18:34;;;;;;;5.65;2.58;;;;;;;20.25;63.52;100045.13;4358299;32;33429;-82
2022/06/17 05:21:03;;;;;;;6.05;2.28;;;;;;;20.42;63.26;100036.69;4356845;32;33127;-86
2022/06/17 05:23:32;;;;;;;3.87;2.08;;;;;;;20.39;61.80;100040.00;4367168;32;34756;-86
2022/06/17 05:26:00;;;;;;;6.10;2.50;;;;;;;20.58;61.80;100037.66;4357721;32;34106;-85
2022/06/17 05:28:28;;;;;;;6.87;2.25;;;;;;;20.37;61.91;100037.44;4370289;32;33306;-77
2022/06/17 05:30:57;;;;;;;6.20;2.53;;;;;;;20.38;61.26;100032.75;4357139;32;33936;-78
2022/06/17 05:33:29;;;;;;;6.12;3.00;;;;;;;20.56;59.75;100040.72;4356633;32;34535;-77
2022/06/17 05:35:59;;;;;;;12.93;8.38;;;;;;;20.58;60.35;100034.88;4370074;32;33940;-77
2022/06/17 05:38:30;;;;;;;21.62;14.60;;;;;;;20.77;60.45;100035.31;4345392;32;32933;-87
2022/06/17 05:40:59;;;;;;;4.50;2.10;;;;;;;21.18;60.68;100037.25;4369896;32;34104;-83
2022/06/17 05:43:30;;;;;;;4.78;2.03;;;;;;;21.02;59.65;100046.63;4363451;32;32368;-84
2022/06/17 05:46:12;;;;;;;4.62;2.08;;;;;;;20.98;58.59;100048.28;4366792;32;32070;-83
2022/06/17 05:48:44;;;;;;;5.80;2.05;;;;;;;20.71;59.22;100042.78;4366938;32;33094;-83
2022/06/17 05:51:13;;;;;;;4.82;2.10;;;;;;;20.62;59.63;100061.13;4380480;32;32819;-84
2022/06/17 05:53:42;;;;;;;5.45;2.12;;;;;;;20.69;59.50;100065.38;4380300;32;32593;-81
2022/06/17 05:56:11;;;;;;;6.80;2.25;;;;;;;20.97;59.10;100077.28;4380587;32;33594;-81
2022/06/17 05:58:42;;;;;;;4.75;2.15;;;;;;;21.19;58.26;100075.22;4380713;32;34461;-81
2022/06/17 06:01:11;;;;;;;6.97;2.37;;;;;;;21.04;58.76;100086.28;4368167;32;33730;-81
2022/06/17 06:03:40;;;;;;;7.00;2.30;;;;;;;21.36;58.04;100083.44;4380775;32;34013;-81
2022/06/17 06:06:08;;;;;;;7.57;2.80;;;;;;;21.69;57.29;100082.19;4364987;32;32755;-81
2022/06/17 06:08:39;;;;;;;4.57;2.03;;;;;;;21.81;57.35;100084.75;4378869;32;33534;-81
2022/06/17 06:11:07;;;;;;;5.28;2.55;;;;;;;21.74;57.33;100084.19;4365976;32;33088;-81
2022/06/17 06:13:36;;;;;;;6.07;2.10;;;;;;;21.48;56.88;100086.84;4367357;32;34714;-80
2022/06/17 06:16:05;;;;;;;4.50;1.83;;;;;;;21.58;57.00;100092.47;4366917;32;32065;-81
2022/06/17 06:18:36;;;;;;;5.35;1.85;;;;;;;21.69;57.05;100093.38;4367457;32;32480;-81
2022/06/17 06:21:06;;;;;;;3.55;1.87;;;;;;;21.77;56.56;100101.22;4367656;32;32972;-81
2022/06/17 06:23:38;;;;;;;5.50;2.28;;;;;;;21.75;56.80;100097.87;4380660;32;34083;-81
2022/06/17 06:26:08;;;;;;;4.62;2.30;;;;;;;21.44;56.98;100096.91;4367169;32;31922;-80
2022/06/17 06:28:39;;;;;;;5.90;2.05;;;;;;;21.92;56.02;100089.28;4379967;32;33535;-81
2022/06/17 06:31:16;;;;;;;6.82;2.08;;;;;;;21.65;56.84;100101.47;4367888;32;34193;-81
2022/06/17 06:33:47;;;;;;;4.53;2.40;;;;;;;21.72;56.45;100105.97;4367931;32;33267;-81
2022/06/17 06:36:15;;;;;;;5.40;2.37;;;;;;;21.92;55.74;100108.84;4367944;32;31771;-81
2022/06/17 06:38:45;;;;;;;5.62;2.50;;;;;;;21.75;55.81;100109.06;4380281;32;34645;-80
2022/06/17 06:41:20;;;;;;;6.65;2.50;;;;;;;21.89;56.01;100113.03;4379888;32;33000;-81
2022/06/17 06:43:49;;;;;;;;;;;;;;;22.17;55.36;100113.69;4380539;32;34213;-81
2022/06/17 06:46:24;;;;;;;7.85;2.60;;;;;;;21.66;56.70;100111.53;4355029;32;31714;-80
2022/06/17 06:48:59;;;;;;;8.77;2.75;;;;;;;21.78;56.30;100111.31;4381165;32;33677;-81
2022/06/17 06:51:31;;;;;;;5.05;2.58;;;;;;;21.65;57.07;100120.16;4380813;32;34321;-80
2022/06/17 06:54:01;;;;;;;5.72;2.47;;;;;;;21.63;57.12;100116.81;4380500;32;34824;-81
2022/06/17 06:56:30;;;;;;;6.55;2.50;;;;;;;21.65;56.52;100117.38;4380256;32;34348;-80
2022/06/17 06:59:01;;;;;;;7.35;2.97;;;;;;;22.27;55.17;100111.78;4380227;32;34469;-81
2022/06/17 07:01:32;;;;;;;7.43;2.42;;;;;;;22.05;55.76;100113.12;4379815;32;34400;-81
2022/06/17 07:04:01;;;;;;;6.00;2.87;;;;;;;22.15;55.03;100124.31;4379882;32;32560;-81
2022/06/17 07:06:29;;;;;;;5.95;2.50;;;;;;;22.46;54.33;100126.09;4380193;32;34099;-81
2022/06/17 07:08:56;;;;;;;4.82;2.37;;;;;;;22.71;54.25;100118.84;4380301;32;34374;-81
2022/06/17 07:11:24;;;;;;;5.85;2.33;;;;;;;22.64;54.03;100117.16;4380023;32;34519;-81
2022/06/17 07:13:52;;;;;;;4.78;2.15;;;;;;;22.94;53.80;100109.91;4380140;32;34819;-80
2022/06/17 07:16:22;;;;;;;5.70;2.40;;;;;;;23.18;53.51;100113.81;4380142;32;33545;-80
2022/06/17 07:18:50;;;;;;;6.72;2.35;;;;;;;23.52;53.13;100115.97;4380019;32;33840;-80
2022/06/17 07:21:18;;;;;;;7.60;2.50;;;;;;;23.31;51.38;100110.44;4367744;32;35356;-81
2022/06/17 07:23:48;;;;;;;6.53;2.28;;;;;;;23.33;52.28;100119.41;4367653;32;32439;-81
2022/06/17 07:26:27;;;;;;;6.68;2.37;;;;;;;23.22;51.64;100125.28;4379499;32;33120;-80
2022/06/17 07:28:58;;;;;;;5.20;2.30;;;;;;;23.58;51.24;100128.87;4367850;32;33906;-80
2022/06/17 07:31:28;;;;;;;7.93;2.53;;;;;;;23.85;51.43;100120.12;4379697;32;33786;-80
2022/06/17 07:33:58;;;;;;;6.65;2.22;;;;;;;23.95;51.13;100122.88;4367699;32;32539;-81
2022/06/17 07:42:05;;;;;;;6.00;2.50;;;;;;;24.11;48.99;100120.81;4369368;32;32924;-80
2022/06/17 07:44:36;;;;;;;12.52;2.45;;;;;;;24.22;49.05;100128.06;4379958;32;34154;-81
2022/06/17 07:47:04;;;;;;;5.00;2.37;;;;;;;24.20;48.63;100127.50;4368094;32;33467;-81
2022/06/17 07:49:37;;;;;;;7.55;2.62;;;;;;;24.16;48.80;100118.00;4367222;32;32148;-81
2022/06/17 07:52:09;;;;;;;7.35;2.92;;;;;;;24.27;49.28;100125.25;4367667;32;33873;-81
2022/06/17 07:54:39;;;;;;;67.82;18.52;;;;;;;24.11;49.98;100127.28;4367243;32;32517;-81
2022/06/17 07:57:11;;;;;;;22.75;7.57;;;;;;;24.25;50.18;100122.75;4367559;32;33369;-81
2022/06/17 07:59:39;;;;;;;11.43;3.72;;;;;;;24.16;50.20;100120.78;4367703;32;33634;-81
2022/06/17 08:02:07;;;;;;;14.68;4.00;;;;;;;24.35;50.49;100121.84;4380186;32;34367;-80
2022/06/17 08:04:36;;;;;;;8.55;2.90;;;;;;;24.67;49.92;100126.97;4367822;32;33905;-80
2022/06/17 08:07:07;;;;;;;5.32;2.70;;;;;;;24.73;50.01;100125.78;4379604;32;33692;-81
2022/06/17 08:09:35;;;;;;;5.45;2.58;;;;;;;24.80;49.18;100128.25;4366991;32;32315;-81
2022/06/17 08:12:08;;;;;;;6.72;2.37;;;;;;;24.92;48.18;100128.75;4379667;32;34364;-81
2022/06/17 08:14:35;;;;;;;5.68;2.87;;;;;;;25.27;47.87;100125.66;4380020;32;33880;-80
2022/06/17 08:17:05;;;;;;;7.45;2.72;;;;;;;25.46;46.96;100133.31;4367187;32;33033;-81
2022/06/17 08:19:33;;;;;;;8.20;3.05;;;;;;;25.34;47.22;100133.75;4367216;32;33788;-81
2022/06/17 08:22:01;;;;;;;5.47;2.50;;;;;;;25.47;47.15;100124.59;4379830;32;34428;-81
2022/06/17 08:24:28;;;;;;;6.80;2.78;;;;;;;25.71;45.98;100130.28;4379541;32;33971;-81
2022/06/17 08:26:59;;;;;;;6.10;2.67;;;;;;;25.80;46.68;100139.72;4379300;32;33036;-80
2022/06/17 08:29:28;;;;;;;5.43;2.97;;;;;;;25.42;46.93;100124.63;4379363;32;34389;-81
2022/06/17 08:35:07;;;;;;;9.68;3.20;;;;;;;25.95;47.26;100135.06;4381551;32;33905;-81
2022/06/17 08:37:37;;;;;;;10.05;3.00;;;;;;;26.30;46.33;100125.31;4379187;32;31988;-81
2022/06/17 08:40:34;;;;;;;6.68;2.80;;;;;;;26.22;45.67;100124.00;4379267;32;33812;-80
2022/06/17 08:43:39;;;;;;;6.28;2.97;;;;;;;26.51;44.78;100123.91;4374690;32;34091;-80
2022/06/17 08:46:43;;;;;;;5.95;2.40;;;;;;;26.55;45.49;100116.53;4366844;32;32366;-81
2022/06/17 08:49:20;;;;;;;7.50;2.70;;;;;;;26.81;44.64;100119.75;4379193;32;34155;-81
2022/06/17 08:52:27;;;;;;;7.97;2.80;;;;;;;26.93;44.03;100120.12;4379227;32;33817;-81
2022/06/17 08:55:09;;;;;;;;;;;;;;;26.63;42.67;100126.28;4367279;32;33794;-80
2022/06/17 08:58:22;;;;;;;3.83;2.00;;;;;;;26.60;37.94;100124.06;4366749;32;33518;-81
2022/06/17 09:01:13;;;;;;;6.05;2.40;;;;;;;27.16;40.40;100130.47;4352625;32;33524;-81
2022/06/17 09:03:43;;;;;;;6.80;2.55;;;;;;;27.33;41.43;100137.50;4379023;32;34576;-80
2022/06/17 09:06:27;;;;;;;5.12;2.30;;;;;;;27.28;39.35;100140.44;4379177;32;34900;-80
2022/06/17 09:09:28;;;;;;;4.82;2.28;;;;;;;27.56;38.47;100139.31;4366458;32;33051;-81
2022/06/17 09:12:13;;;;;;;8.70;2.50;;;;;;;27.82;39.57;100139.69;4366119;32;32108;-81
2022/06/17 09:15:05;;;;;;;6.15;2.30;;;;;;;28.03;40.02;100146.56;4378596;32;33263;-80
2022/06/17 09:18:07;;;;;;;6.50;2.75;;;;;;;27.90;36.47;100140.97;4378856;32;34338;-80
2022/06/17 09:20:43;;;;;;;7.03;2.45;;;;;;;28.28;39.20;100135.94;4366451;32;32854;-80
2022/06/17 09:23:19;;;;;;;6.43;3.10;;;;;;;28.20;40.25;100141.13;4366832;32;33009;-80
2022/06/17 09:25:51;;;;;;;5.30;2.40;;;;;;;28.48;41.48;100153.25;4380810;32;34621;-81
2022/06/17 09:28:24;;;;;;;4.97;2.55;;;;;;;28.71;36.75;100153.28;4367671;32;32920;-80
2022/06/17 09:31:09;;;;;;;5.55;2.42;;;;;;;28.63;39.60;100146.41;4369437;32;33935;-80
2022/06/17 09:33:51;;;;;;;5.68;2.65;;;;;;;28.77;38.80;100143.53;4381742;32;34296;-80
2022/06/17 09:36:29;;;;;;;7.20;2.50;;;;;;;28.75;37.77;100146.69;4371090;32;33503;-81
2022/06/17 09:39:01;;;;;;;8.07;2.97;;;;;;;28.82;37.96;100157.56;4367972;32;32940;-81
2022/06/17 09:41:36;;;;;;;4.32;1.98;;;;;;;28.85;37.33;100157.78;4380539;32;34772;-81
2022/06/17 09:44:20;;;;;;;5.53;2.33;;;;;;;29.04;36.37;100153.94;4379722;32;34209;-80
2022/06/17 09:46:57;;;;;;;8.85;2.78;;;;;;;29.24;37.06;100156.25;4338369;32;32835;-80
2022/06/17 09:49:31;;;;;;;6.10;2.50;;;;;;;29.09;38.17;100151.81;4362615;32;33177;-81
2022/06/17 09:52:10;;;;;;;5.62;2.62;;;;;;;29.12;36.52;100170.13;4346618;32;33999;-80
2022/06/17 09:54:44;;;;;;;3.87;2.30;;;;;;;29.42;36.77;100168.53;4364854;32;32296;-81
2022/06/17 09:57:20;;;;;;;4.93;2.28;;;;;;;29.25;35.68;100163.56;4344806;32;33767;-80
2022/06/17 09:59:57;;;;;;;3.58;2.37;;;;;;;29.41;35.23;100181.84;4344364;32;33021;-81
2022/06/17 10:02:32;;;;;;;6.57;2.53;;;;;;;28.94;34.65;100188.94;4344626;32;34147;-81
2022/06/17 10:05:01;;;;;;;5.05;2.40;;;;;;;29.15;34.55;100184.47;4375656;32;33340;-81
2022/06/17 10:07:48;;;;;;;6.32;2.60;;;;;;;29.63;34.44;100183.81;4342935;32;35244;-81
2022/06/17 10:10:28;;;;;;;5.35;2.40;;;;;;;29.46;34.18;100197.84;4346558;32;35295;-81
2022/06/17 10:13:20;;;;;;;6.62;2.60;;;;;;;29.71;34.80;100191.50;4358768;32;34561;-81
2022/06/17 10:19:14;;;;;;;5.93;2.12;;;;;;;29.88;35.13;100193.59;4375631;32;34768;-81
2022/06/17 10:21:51;;;;;;;5.93;2.60;;;;;;;29.95;33.47;100195.94;4350512;32;32792;-80
2022/06/17 10:24:44;;;;;;;5.25;2.40;;;;;;;29.88;32.70;100192.78;4375326;32;34619;-81
2022/06/17 10:27:21;;;;;;;5.87;2.90;;;;;;;29.77;34.60;100195.88;4353499;32;33556;-79
2022/06/17 10:30:13;;;;;;;7.15;2.67;;;;;;;30.02;34.24;100207.66;4364130;32;32351;-81
2022/06/17 10:32:48;;;;;;;7.05;2.60;;;;;;;29.86;33.04;100204.41;4365001;32;34365;-81
2022/06/17 10:35:35;;;;;;;;;;;;;;;30.15;33.30;100206.72;4352201;32;33412;-81
2022/06/17 10:38:13;;;;;;;4.32;2.50;;;;;;;30.26;33.21;100193.94;4353139;32;32941;-81
2022/06/17 10:40:46;;;;;;;6.78;2.62;;;;;;;30.56;32.72;100194.16;4365850;32;33539;-81
2022/06/17 10:43:17;;;;;;;6.87;2.70;;;;;;;30.71;31.67;100199.41;4377476;32;34114;-81
2022/06/17 10:45:47;;;;;;;5.97;2.53;;;;;;;30.77;32.04;100201.75;4377266;32;34706;-81
2022/06/17 10:48:25;;;;;;;5.62;2.92;;;;;;;31.12;30.15;100205.44;4352376;32;32802;-81
2022/06/17 10:50:54;;;;;;;7.20;2.42;;;;;;;30.92;29.21;100189.09;4375995;32;33421;-81
2022/06/17 10:53:31;;;;;;;4.90;2.45;;;;;;;31.24;29.71;100201.94;4350026;32;33966;-82
2022/06/17 10:56:01;;;;;;;6.72;2.58;;;;;;;30.74;28.71;100207.25;4352607;32;33844;-83
2022/06/17 10:58:33;;;;;;;5.70;2.50;;;;;;;30.77;28.31;100200.91;4351548;32;32130;-83
2022/06/17 11:01:04;;;;;;;5.37;2.55;;;;;;;30.92;27.98;100202.44;4351649;32;33749;-82
2022/06/17 11:03:35;;;;;;;6.87;2.60;;;;;;;31.11;29.27;100200.09;4354745;32;34521;-81
2022/06/17 11:06:10;;;;;;;5.28;2.35;;;;;;;31.34;29.09;100204.44;4352531;32;33802;-82
2022/06/17 11:08:52;;;;;;;4.78;2.80;;;;;;;31.69;31.46;100204.44;4364684;32;33503;-82
2022/06/17 11:12:04;;;;;;;8.00;2.60;;;;;;;31.64;30.00;100196.87;4365005;32;34092;-81
2022/06/17 11:14:41;;;;;;;6.05;2.65;;;;;;;31.59;27.89;100199.91;4364906;32;34353;-81
2022/06/17 11:17:15;;;;;;;5.22;2.55;;;;;;;31.84;28.66;100201.06;4364927;32;33910;-81
2022/06/17 11:19:57;;;;;;;7.60;2.70;;;;;;;31.73;27.76;100188.38;4365127;32;33513;-81
2022/06/17 11:22:37;;;;;;;5.00;2.92;;;;;;;31.88;27.68;100206.84;4365260;32;34249;-82
2022/06/17 11:25:38;;;;;;;6.12;2.20;;;;;;;31.47;26.71;100211.09;4364977;32;34339;-82
2022/06/17 11:28:22;;;;;;;7.93;3.35;;;;;;;30.60;26.06;100201.72;4340541;32;32769;-82
2022/06/17 11:31:28;;;;;;;5.60;2.50;;;;;;;30.50;25.90;100202.00;4365098;32;33480;-81
2022/06/17 11:33:59;;;;;;;7.05;2.58;;;;;;;30.30;27.59;100203.44;4334048;32;33626;-81
2022/06/17 11:36:36;;;;;;;7.55;3.17;;;;;;;30.00;28.84;100205.16;4352622;32;35169;-81
2022/06/17 11:39:31;;;;;;;7.18;3.17;;;;;;;30.59;30.37;100205.72;4364680;32;34674;-81
2022/06/17 11:42:22;;;;;;;4.43;2.47;;;;;;;30.73;30.42;100202.75;4365425;32;33618;-82
2022/06/17 11:44:56;;;;;;;15.95;3.40;;;;;;;30.05;29.44;100198.50;4352497;32;32239;-83
2022/06/17 11:47:29;;;;;;;4.22;2.67;;;;;;;30.10;30.71;100207.69;4352369;32;35243;-82
2022/06/17 11:50:20;;;;;;;5.45;2.75;;;;;;;30.02;31.04;100204.84;4352518;32;34639;-81
2022/06/17 11:52:52;;;;;;;4.93;2.80;;;;;;;30.12;30.66;100213.87;4365117;32;33452;-81
2022/06/17 11:55:28;;;;;;;5.37;3.20;;;;;;;30.09;30.87;100199.53;4352306;32;32402;-82
2022/06/17 11:58:19;;;;;;;7.97;3.25;;;;;;;30.13;31.11;100201.38;4370822;32;214789;-82
2022/06/17 12:00:57;;;;;;;5.62;2.70;;;;;;;30.11;29.34;100200.03;4352112;32;34561;-82
2022/06/17 12:03:29;;;;;;;4.68;2.62;;;;;;;30.31;29.10;100181.62;4340589;32;32365;-81
2022/06/17 12:06:00;;;;;;;7.12;3.40;;;;;;;29.92;28.66;100182.44;4364533;32;34460;-81
2022/06/17 12:08:42;;;;;;;5.90;2.40;;;;;;;30.30;28.64;100180.78;4364615;32;34634;-82
2022/06/17 12:11:29;;;;;;;4.00;2.40;;;;;;;29.96;28.62;100180.63;4352150;32;34408;-81
2022/06/17 12:13:59;;;;;;;5.25;2.42;;;;;;;30.59;28.54;100162.37;4352344;32;34691;-81
2022/06/17 12:16:40;;;;;;;6.95;2.50;;;;;;;30.89;27.83;100164.25;4352060;32;32997;-82
2022/06/17 12:19:23;;;;;;;9.98;2.80;;;;;;;30.93;27.56;100159.56;4343056;32;34660;-81
2022/06/17 12:22:00;;;;;;;5.32;2.67;;;;;;;30.65;28.58;100170.38;4352315;32;33969;-81
2022/06/17 12:24:43;;;;;;;5.22;2.78;;;;;;;30.88;29.77;100173.91;4339763;32;31892;-82